Rogers Spring, Nevada Weather observations

Data are for 10 minute period ending at time listed.
 Day   Time   Solar   Ave.   Ave.  Ave.  Vector  Max.   Baro.   Total    
  of    of     Rad.   Air    Rel.  Wind   Wind   Wind  Press.  Precip.   
Year   Day            Temp.  Hum.  Speed  Dir.   Gust                    
2015   (PST)  Kw/m2    F      %     mph   deg.    mph    mb.     in.     
-------------------------------------------------------------------------
 242   16:50   0.23   98.6    11    7.1   173    13.7   927.0    0.00 
 242   17:00   0.21   98.4    11    6.8   178    13.6   926.9    0.00 
 242   17:10   0.17   97.9    10    6.5   182    13.7   926.9    0.00 
 242   17:20   0.15   97.3    10    7.0   176    13.1   926.8    0.00 
 242   17:30   0.12   96.6    10    5.9   169    11.5   926.7    0.00 
 242   17:40   0.09   95.9    11    5.5   178    11.4   926.6    0.00 
 242   17:50   0.06   95.0    11    5.3   170    10.5   926.4    0.00 
 242   18:00   0.04   93.8    12    5.4   170    11.2   926.3    0.00 
 242   18:10   0.01   92.4    12    4.5   172     9.1   926.2    0.00 
 242   18:20   0.01   90.5    13    3.8   170     6.9   926.1    0.00 
 242   18:30   0.00   89.4    14    4.2   164     7.4   926.1    0.00 
 242   18:40   0.00   87.8    14    3.8   159     5.6   926.1    0.00 
 242   18:50   0.00   86.3    14    3.7   160     6.1   926.2    0.00 
 242   19:00   0.00   86.0    15    3.6   163     5.6   926.4    0.00 
 242   19:10   0.00   85.2    15    4.0   161     6.5   926.6    0.00 
 242   19:20   0.00   85.7    14    4.4   167     9.9   926.7    0.00 
 242   19:30   0.00   85.2    14    4.4   156     6.9   926.8    0.00 
 242   19:40   0.00   84.4    14    4.2   155     6.9   927.0    0.00 
 242   19:50   0.00   84.7    14    3.8   168     6.1   927.2    0.00 
 242   20:00   0.00   84.6    14    3.9   166     6.1   927.3    0.00 
 242   20:10   0.00   84.8    14    5.0   165     8.9   927.3    0.00 
 242   20:20   0.00   85.5    14    5.3   170     8.3   927.5    0.00 
 242   20:30   0.00   85.0    14    5.4   162     8.8   927.5    0.00 
 242   20:40   0.00   84.3    15    5.6   158     9.0   927.5    0.00 
 242   20:50   0.00   85.0    15    4.8   153     8.0   927.5    0.00 
 242   21:00   0.00   85.4    15    5.5   156     9.2   927.5    0.00 
 242   21:10   0.00   86.3    15    5.6   154     9.4   927.5    0.00 
 242   21:20   0.00   85.9    15    4.6   154     9.9   927.6    0.00 
 242   21:30   0.00   85.7    15    3.9   151     7.7   927.7    0.00 
 242   21:40   0.00   85.4    16    2.3   140     5.1   927.7    0.00 
 242   21:50   0.00   85.6    16    2.4   118     5.4   927.8    0.00 
 242   22:00   0.00   85.5    16    1.4   126     5.2   927.8    0.00 
 242   22:10   0.00   82.3    19    1.1   288     2.4   928.0    0.00 
 242   22:20   0.00   76.8    22    1.3   358     2.2   928.0    0.00 
 242   22:30   0.00   76.1    23    1.0   236     4.1   928.1    0.00 
 242   22:40   0.00   74.3    25    1.2     8     2.7   928.3    0.00 
 242   22:50   0.00   74.0    25    1.1    43     3.4   928.4    0.00 
 242   23:00   0.00   73.5    26    1.7    76     5.6   928.6    0.00 
 242   23:10   0.00   72.1    27    0.6    59     1.8   928.6    0.00 
 242   23:20   0.00   71.2    27    1.0   152     1.9   928.7    0.00 
 242   23:30   0.00   69.6    29    1.4   139     2.4   928.7    0.00 
 242   23:40   0.00   71.4    28    1.4   140     2.3   928.8    0.00 
 242   23:50   0.00   74.0    26    2.7   148     4.3   928.8    0.00 
 243    0:00   0.00   74.8    25    2.8   164     4.3   928.8    0.00 
 243    0:10   0.00   74.6    26    2.7   156     4.7   928.9    0.00 
 243    0:20   0.00   74.2    26    2.4   159     3.4   928.9    0.00 
 243    0:30   0.00   74.6    26    2.3   146     3.7   928.9    0.00 
 243    0:40   0.00   75.1    26    2.7   154     4.4   928.9    0.00 
 243    0:50   0.00   75.1    27    2.3   154     3.2   928.9    0.00 
 243    1:00   0.00   73.9    28    2.8   168     4.2   928.8    0.00 
 243    1:10   0.00   75.1    27    3.4   157     6.0   928.8    0.00 
 243    1:20   0.00   75.7    27    2.5   162     4.5   928.9    0.00 
 243    1:30   0.00   74.4    28    1.9   172     2.9   928.9    0.00 
 243    1:40   0.00   73.1    29    1.2   163     2.0   929.1    0.00 
 243    1:50   0.00   72.9    30    2.1   101     3.7   929.1    0.00 
 243    2:00   0.00   71.7    31    2.5    75     3.4   929.2    0.00 
 243    2:10   0.00   71.3    32    0.6   288     2.6   929.2    0.00 
 243    2:20   0.00   67.4    38    0.4   282     1.7   929.2    0.00 
 243    2:30   0.00   66.6    38    0.3   194     2.0   929.2    0.00 
 243    2:40   0.00   65.8    39    1.6   202     2.0   929.2    0.00 
 243    2:50   0.00   67.3    36    1.7   150     2.6   929.2    0.00 
 243    3:00   0.00   68.9    34    2.1   138     4.1   929.2    0.00 
 243    3:10   0.00   71.6    31    2.1   138     3.3   929.3    0.00 
 243    3:20   0.00   73.0    30    2.4   147     3.6   929.4    0.00 
 243    3:30   0.00   73.4    30    2.6   148     3.9   929.5    0.00 
 243    3:40   0.00   72.9    31    1.7   146     3.4   929.6    0.00 
 243    3:50   0.00   69.8    33    2.6    63     4.4   929.6    0.00 
 243    4:00   0.00   66.7    35    1.6   103     2.6   929.8    0.00 
 243    4:10   0.00   69.4    36    1.6   139     3.5   929.9    0.00 
 243    4:20   0.00   69.0    39    0.7   130     2.1   930.0    0.00 
 243    4:30   0.00   67.1    40    1.2   204     2.4   930.1    0.00 
 243    4:40   0.00   66.5    40    1.5    47     4.3   930.2    0.00 
 243    4:50   0.00   65.6    42    0.7   116     1.9   930.2    0.00 
 243    5:00   0.00   63.6    44    1.0   117     1.5   930.2    0.00 
 243    5:10   0.00   60.5    48    1.5    82     1.9   930.3    0.00 
 243    5:20   0.00   60.4    49    1.9    75     3.0   930.3    0.00 
 243    5:30   0.00   62.0    46    1.4   130     2.0   930.3    0.00 
 243    5:40   0.00   64.2    44    1.6   142     2.3   930.4    0.00 
 243    5:50   0.01   68.1    40    1.4   140     2.2   930.5    0.00 
 243    6:00   0.02   67.9    43    0.4   204     1.2   930.7    0.00 
 243    6:10   0.02   64.5    52    0.2   299     1.2   931.0    0.00 
 243    6:20   0.00   66.9    47    0.0   162     0.8   931.2    0.00 
 243    6:30   0.08   70.7    38    1.4   200     2.9   931.3    0.00 
 243    6:40   0.17   74.6    30    1.4   220     3.1   931.5    0.00 
 243    6:50   0.16   76.6    29    0.8   276     2.0   931.6    0.00 
 243    7:00   0.10   77.3    28    0.9   276     1.9   931.8    0.00 
 243    7:10   0.29   78.4    28    0.8   259     1.8   931.8    0.00 
 243    7:20   0.30   81.0    24    1.2   213     3.7   931.8    0.00 
 243    7:30   0.35   83.3    22    1.7   182     5.0   931.8    0.00 
 243    7:40   0.39   83.6    22    3.4   203     6.6   931.7    0.00 
 243    7:50   0.42   84.2    22    3.6   190     6.2   931.7    0.00 
 243    8:00   0.45   84.5    22    3.9   190     7.5   931.6    0.00 
 243    8:10   0.48   85.1    21    2.9   173     6.8   931.6    0.00 
 243    8:20   0.31   85.6    21    2.9   192     7.4   931.6    0.00 
 243    8:30   0.35   86.0    21    2.3   174     4.7   931.6    0.00 
 243    8:40   0.47   87.8    20    2.1   168     4.9   931.5    0.00 
 243    8:50   0.53   88.2    20    1.7   145     4.5   931.5    0.00 
 243    9:00   0.61   89.3    19    1.6   168     3.5   931.4    0.00 
 243    9:10   0.64   89.0    20    2.9   234     5.4   931.4    0.00 
 243    9:20   0.66   89.2    19    2.9   160     5.4   931.4    0.00 
 243    9:30   0.68   90.0    19    2.5   194     5.6   931.4    0.00 
 243    9:40   0.70   90.2    19    3.7   200     7.4   931.5    0.00 
 243    9:50   0.71   90.0    19    1.9   328     5.0   931.5    0.00 
 243   10:00   0.74   90.8    19    3.3   204     8.3   931.4    0.00 
 243   10:10   0.71   92.2    18    2.0   255     4.9   931.3    0.00 
 243   10:20   0.49   92.5    18    4.1   223     9.3   931.3    0.00 
 243   10:30   0.78   93.6    17    3.0   187     8.0   931.2    0.00 
 243   10:40   0.80   94.1    17    4.4   196    10.8   931.2    0.00 
 243   10:50   0.81   94.6    16    4.1   178     8.6   931.2    0.00 
 243   11:00   0.81   95.0    15    3.9   205    10.2   931.2    0.00 
 243   11:10   0.82   96.1    14    4.1   189     8.6   931.1    0.00 
 243   11:20   0.83   96.2    14    4.3   209    12.1   930.9    0.00 
 243   11:30   0.83   96.7    14    5.2   174    11.0   930.8    0.00 
 243   11:40   0.84   97.3    14    4.4   178     9.9   930.8    0.00 
 243   11:50   0.84   97.1    14    4.1   241     9.4   930.7    0.00 
 243   12:00   0.84   97.5    13    5.1   192    11.3   930.6    0.00 
 243   12:10   0.83   98.0    13    6.8   208    13.3   930.4    0.00 
 243   12:20   0.83   99.3    13    7.4   195    16.0   930.3    0.00 
 243   12:30   0.83   99.0    13    6.1   199    13.8   930.3    0.00 
 243   12:40   0.82   99.1    13    7.5   194    13.7   930.1    0.00 
 243   12:50   0.81  100.0    12    6.4   193    11.5   930.1    0.00 
 243   13:00   0.80  100.0    12    6.7   194    12.9   930.0    0.00 
 243   13:10   0.79   99.7    12    7.9   193    14.2   929.9    0.00 
 243   13:20   0.78   99.7    12    8.8   194    17.4   929.8    0.00 
 243   13:30   0.77  100.6    12    8.7   184    15.8   929.7    0.00 
 243   13:40   0.75  100.1    12    8.3   185    19.6   929.6    0.00 
 243   13:50   0.73   99.8    12    9.3   200    16.6   929.4    0.00 
 243   14:00   0.72  100.2    11    8.9   187    15.5   929.4    0.00 
 243   14:10   0.70   99.9    11   10.6   192    21.5   929.2    0.00 
 243   14:20   0.68  100.4    10    9.1   189    15.9   929.1    0.00 
 243   14:30   0.66  100.5    10    8.5   189    14.0   928.9    0.00 
 243   14:40   0.63  100.4    10    8.6   182    18.1   928.8    0.00 
 243   14:50   0.61   99.9    10    8.7   185    15.9   928.7    0.00 
 243   15:00   0.58   99.9    10    9.2   183    18.9   928.6    0.00 
 243   15:10   0.56   99.8    10    7.7   183    13.4   928.5    0.00 
 243   15:20   0.53   99.7     9    7.9   197    14.8   928.4    0.00 
 243   15:30   0.48   99.7     9    7.4   189    13.8   928.4    0.00 
 243   15:40   0.47   99.7     9    7.1   173    13.2   928.3    0.00 
 243   15:50   0.43   99.5     9    6.7   184    12.4   928.2    0.00 
 243   16:00   0.40   99.4     9    6.6   180    12.6   928.1    0.00 
 243   16:10   0.37   99.5     9    6.2   185    11.8   928.1    0.00 
 243   16:20   0.34   98.9    10    6.4   188    12.3   927.9    0.00 
 243   16:30   0.30   98.4    10    6.5   182    12.9   927.8    0.00 
 243   16:40   0.27   98.2    10    6.6   174    12.2   927.8    0.00 

Return to Rogers Spring graphs page.


Western Regional Climate Center,wrcc@dri.edu